createdAt,value
2018-06-01T00:00:37.106Z,25.13
2018-06-01T00:03:04.541Z,23.50
2018-06-01T00:05:32.041Z,23.00
2018-06-01T00:07:59.504Z,24.90
2018-06-01T00:10:27.741Z,22.60
2018-06-01T00:12:55.229Z,24.60
2018-06-01T00:15:23.477Z,23.33
2018-06-01T00:17:50.965Z,22.50
2018-06-01T00:20:18.435Z,24.13
2018-06-01T00:22:46.018Z,25.33
2018-06-01T00:25:13.545Z,24.47
2018-06-01T00:27:41.028Z,26.53
2018-06-01T00:30:08.493Z,25.53
2018-06-01T00:32:35.993Z,25.90
2018-06-01T00:35:03.485Z,25.70
2018-06-01T00:37:31.722Z,26.87
2018-06-01T00:39:59.237Z,26.47
2018-06-01T00:42:26.749Z,27.40
2018-06-01T00:44:54.229Z,26.57
2018-06-01T00:47:21.735Z,29.47
2018-06-01T00:49:49.211Z,27.53
2018-06-01T00:52:16.701Z,28.90
2018-06-01T00:54:52.698Z,29.37
2018-06-01T00:57:20.196Z,31.13
2018-06-01T00:59:47.668Z,28.90
2018-06-01T01:02:15.133Z,31.63
2018-06-01T01:04:42.933Z,28.53
2018-06-01T01:07:10.502Z,31.53
2018-06-01T01:09:37.977Z,33.03
2018-06-01T01:12:05.432Z,31.83
2018-06-01T01:14:32.929Z,32.10
2018-06-01T01:17:00.397Z,29.10
2018-06-01T01:19:27.858Z,29.70
2018-06-01T01:21:55.335Z,33.67
2018-06-01T01:24:22.796Z,31.90
2018-06-01T01:26:50.285Z,30.27
2018-06-01T01:29:17.812Z,33.37
2018-06-01T01:31:46.081Z,33.43
2018-06-01T01:34:14.385Z,34.20
2018-06-01T01:36:41.865Z,33.67
2018-06-01T01:39:09.352Z,36.30
2018-06-01T01:41:36.813Z,34.70
2018-06-01T01:44:04.289Z,32.50
2018-06-01T01:46:31.786Z,32.10
2018-06-01T01:48:59.254Z,33.27
2018-06-01T01:51:26.732Z,33.80
2018-06-01T01:53:54.200Z,34.63
2018-06-01T01:56:21.689Z,31.17
2018-06-01T01:58:49.913Z,31.00
2018-06-01T02:01:17.756Z,32.40
2018-06-01T02:03:45.269Z,34.67
2018-06-01T02:06:12.761Z,35.93
2018-06-01T02:08:40.492Z,34.17
2018-06-01T02:11:08.249Z,36.20
2018-06-01T02:13:35.717Z,32.00
2018-06-01T02:16:03.209Z,37.07
2018-06-01T02:18:30.697Z,34.80
2018-06-01T02:20:58.164Z,33.70
2018-06-01T02:23:25.649Z,34.37
2018-06-01T02:25:53.142Z,34.00
2018-06-01T02:28:20.719Z,35.63
2018-06-01T02:30:48.208Z,33.80
2018-06-01T02:33:15.679Z,34.50
2018-06-01T02:35:43.177Z,32.83
2018-06-01T02:38:10.671Z,37.60
2018-06-01T02:40:38.174Z,35.80
2018-06-01T02:43:06.404Z,35.17
2018-06-01T02:45:33.897Z,35.83
2018-06-01T02:48:01.356Z,35.17
2018-06-01T02:50:29.152Z,38.33
2018-06-01T02:52:56.669Z,36.40
2018-06-01T02:55:24.142Z,33.60
2018-06-01T02:57:51.623Z,33.57
2018-06-01T03:00:19.876Z,35.00
2018-06-01T03:02:47.367Z,34.50
2018-06-01T03:05:14.849Z,33.90
2018-06-01T03:07:42.365Z,34.87
2018-06-01T03:10:10.627Z,33.97
2018-06-01T03:12:38.116Z,36.67
2018-06-01T03:15:05.630Z,34.93
2018-06-01T03:17:33.117Z,34.23
2018-06-01T03:20:01.425Z,33.00
2018-06-01T03:22:28.884Z,34.20
2018-06-01T03:24:56.369Z,32.40
2018-06-01T03:27:23.827Z,37.17
2018-06-01T03:29:51.308Z,33.73
2018-06-01T03:32:18.823Z,32.17
2018-06-01T03:34:46.295Z,32.00
2018-06-01T03:37:13.765Z,35.07
2018-06-01T03:39:41.272Z,36.37
2018-06-01T03:42:09.589Z,36.03
2018-06-01T03:44:37.065Z,35.43
2018-06-01T03:47:04.552Z,37.90
2018-06-01T03:49:32.141Z,35.80
2018-06-01T03:51:59.635Z,37.13
2018-06-01T03:54:27.100Z,35.73
2018-06-01T03:56:54.589Z,32.73
2018-06-01T03:59:22.049Z,36.77
2018-06-01T04:01:49.530Z,38.07
2018-06-01T04:04:17.008Z,34.90
2018-06-01T04:06:44.479Z,38.50
2018-06-01T04:09:11.964Z,34.77
2018-06-01T04:11:39.436Z,37.80
2018-06-01T04:14:06.932Z,34.93
2018-06-01T04:16:34.393Z,38.47
2018-06-01T04:19:01.885Z,36.23
2018-06-01T04:21:29.380Z,37.90
2018-06-01T04:23:57.612Z,35.90
2018-06-01T04:26:25.092Z,37.30
2018-06-01T04:28:52.582Z,33.03
2018-06-01T04:31:20.057Z,34.30
2018-06-01T04:33:47.513Z,33.77
2018-06-01T04:36:15.001Z,35.63
2018-06-01T04:38:42.477Z,35.63
2018-06-01T04:41:09.932Z,31.73
2018-06-01T04:43:37.450Z,34.80
2018-06-01T04:46:04.906Z,31.23
2018-06-01T04:48:32.379Z,31.60
2018-06-01T04:50:59.867Z,30.10
2018-06-01T04:53:27.361Z,29.93
2018-06-01T04:55:54.820Z,31.00
2018-06-01T04:58:23.050Z,30.10
2018-06-01T05:00:50.528Z,30.47
2018-06-01T05:03:18.002Z,32.20
2018-06-01T05:05:45.479Z,31.27
2018-06-01T05:08:12.936Z,31.30
2018-06-01T05:10:41.161Z,33.40
2018-06-01T05:13:08.627Z,32.17
2018-06-01T05:15:36.097Z,33.03
2018-06-01T05:18:03.597Z,34.00
2018-06-01T05:20:31.091Z,31.17
2018-06-01T05:22:58.682Z,33.57
2018-06-01T05:25:26.181Z,31.30
2018-06-01T05:27:53.664Z,32.43
2018-06-01T05:30:21.153Z,30.90
2018-06-01T05:32:48.620Z,31.17
2018-06-01T05:35:16.090Z,32.00
2018-06-01T05:37:43.588Z,33.30
2018-06-01T05:40:11.052Z,33.97
2018-06-01T05:42:38.609Z,31.47
2018-06-01T05:45:06.105Z,33.60
2018-06-01T05:47:33.561Z,31.67
2018-06-01T05:50:01.014Z,32.57
2018-06-01T05:52:29.297Z,30.00
2018-06-01T05:54:56.908Z,34.40
2018-06-01T05:57:24.368Z,30.77
2018-06-01T05:59:52.135Z,31.40
2018-06-01T06:02:19.637Z,33.30
2018-06-01T06:04:47.120Z,30.80
2018-06-01T06:07:14.770Z,31.20
2018-06-01T06:09:42.172Z,28.97
2018-06-01T06:12:09.644Z,30.20
2018-06-01T06:14:37.138Z,30.23
2018-06-01T06:17:04.604Z,30.43
2018-06-01T06:19:32.101Z,32.50
2018-06-01T06:21:59.585Z,33.60
2018-06-01T06:24:27.089Z,33.70
2018-06-01T06:26:54.596Z,36.73
2018-06-01T06:29:22.063Z,34.40
2018-06-01T06:31:49.551Z,34.97
2018-06-01T06:34:17.021Z,35.30
2018-06-01T06:36:44.503Z,34.97
2018-06-01T06:39:12.798Z,33.07
2018-06-01T06:41:40.274Z,36.30
2018-06-01T06:44:07.770Z,35.77
2018-06-01T06:46:35.241Z,37.10
2018-06-01T06:49:02.712Z,35.80
2018-06-01T06:51:30.198Z,36.20
2018-06-01T06:53:57.863Z,34.90
2018-06-01T06:56:25.347Z,36.30
2018-06-01T06:58:52.813Z,35.73
2018-06-01T07:01:20.292Z,36.30
2018-06-01T07:03:47.757Z,36.40
2018-06-01T07:06:16.047Z,35.07
2018-06-01T07:08:44.276Z,35.20
2018-06-01T07:11:11.747Z,38.27
2018-06-01T07:13:39.627Z,36.30
2018-06-01T07:16:07.286Z,41.00
2018-06-01T07:18:35.572Z,40.47
2018-06-01T07:21:03.032Z,41.43
2018-06-01T07:23:30.503Z,37.43
2018-06-01T07:25:58.756Z,43.83
2018-06-01T07:28:26.752Z,40.80
2018-06-01T07:30:54.716Z,41.07
2018-06-01T07:33:22.326Z,41.10
2018-06-01T07:35:51.200Z,43.53
2018-06-01T07:38:18.917Z,42.90
2018-06-01T07:40:47.195Z,41.63
2018-06-01T07:43:15.549Z,44.90
2018-06-01T07:45:43.100Z,41.70
2018-06-01T07:48:10.660Z,46.63
2018-06-01T07:50:38.274Z,45.03
2018-06-01T07:53:06.793Z,46.37
2018-06-01T07:55:34.336Z,48.00
2018-06-01T07:58:01.819Z,47.50
2018-06-01T08:00:30.620Z,47.93
2018-06-01T08:02:58.153Z,49.10
2018-06-01T08:05:25.698Z,49.60
2018-06-01T08:07:53.572Z,44.13
2018-06-01T08:10:21.114Z,48.33
2018-06-01T08:12:49.018Z,46.37
2018-06-01T08:15:17.343Z,45.47
2018-06-01T08:17:45.640Z,46.90
2018-06-01T08:20:13.225Z,44.10
2018-06-01T08:22:41.057Z,43.47
2018-06-01T08:25:08.632Z,43.80
2018-06-01T08:27:36.119Z,44.33
2018-06-01T08:30:03.949Z,45.83
2018-06-01T08:32:31.474Z,46.23
2018-06-01T08:34:58.955Z,42.87
2018-06-01T08:37:26.417Z,43.90
2018-06-01T08:39:53.882Z,43.67
2018-06-01T08:42:22.141Z,42.30
2018-06-01T08:44:49.604Z,42.30
2018-06-01T08:47:17.080Z,42.40
2018-06-01T08:49:45.345Z,46.73
2018-06-01T08:52:12.881Z,45.53
2018-06-01T08:54:40.337Z,46.13
2018-06-01T08:57:07.800Z,46.73
2018-06-01T08:59:35.291Z,46.50
2018-06-01T09:02:02.768Z,47.27
2018-06-01T09:04:30.289Z,42.50
2018-06-01T09:06:57.745Z,45.03
2018-06-01T09:09:25.223Z,45.67
2018-06-01T09:11:53.497Z,47.33
2018-06-01T09:14:20.943Z,48.23
2018-06-01T09:16:48.464Z,44.80
2018-06-01T09:19:15.866Z,44.43
2018-06-01T09:21:43.354Z,46.33
2018-06-01T09:24:10.807Z,44.60
2018-06-01T09:26:39.066Z,43.80
2018-06-01T09:29:07.348Z,45.93
2018-06-01T09:31:35.603Z,43.70
2018-06-01T09:34:03.432Z,46.70
2018-06-01T09:36:30.888Z,45.17
2018-06-01T09:38:58.373Z,46.17
2018-06-01T09:41:25.912Z,45.30
2018-06-01T09:43:53.700Z,45.27
2018-06-01T09:46:22.134Z,47.70
2018-06-01T09:48:49.855Z,46.33
2018-06-01T09:51:18.148Z,47.83
2018-06-01T09:53:45.620Z,45.90
2018-06-01T09:56:13.847Z,44.50
2018-06-01T09:58:41.329Z,50.87
2018-06-01T10:01:09.711Z,47.23
2018-06-01T10:03:37.191Z,47.67
2018-06-01T10:06:04.692Z,49.97
2018-06-01T10:08:32.152Z,49.83
2018-06-01T10:10:59.627Z,50.07
2018-06-01T10:13:27.125Z,48.37
2018-06-01T10:15:55.593Z,46.03
2018-06-01T10:18:24.066Z,46.30
2018-06-01T10:20:51.684Z,46.87
2018-06-01T10:23:19.174Z,51.77
2018-06-01T10:25:46.764Z,53.23
2018-06-01T10:28:15.001Z,46.03
2018-06-01T10:30:42.492Z,50.83
2018-06-01T10:33:10.072Z,54.73
2018-06-01T10:35:37.782Z,52.27
2018-06-01T10:38:05.295Z,54.27
2018-06-01T10:40:33.543Z,51.73
2018-06-01T10:43:01.010Z,47.53
2018-06-01T10:45:28.491Z,49.80
2018-06-01T10:47:56.719Z,47.47
2018-06-01T10:50:24.248Z,49.00
2018-06-01T10:52:51.941Z,46.37
2018-06-01T10:55:19.456Z,50.33
2018-06-01T10:57:47.712Z,48.47
2018-06-01T11:00:15.176Z,48.20
2018-06-01T11:02:43.432Z,46.73
2018-06-01T11:05:10.973Z,51.47
2018-06-01T11:07:38.451Z,48.20
2018-06-01T11:10:05.921Z,51.07
2018-06-01T11:12:33.605Z,48.03
2018-06-01T11:15:01.101Z,50.50
2018-06-01T11:17:28.594Z,50.90
2018-06-01T11:19:56.071Z,52.20
2018-06-01T11:22:23.563Z,48.70
2018-06-01T11:24:51.249Z,51.27
2018-06-01T11:27:18.708Z,46.97
2018-06-01T11:29:46.180Z,55.87
2018-06-01T11:32:14.461Z,53.40
2018-06-01T11:34:42.026Z,49.70
2018-06-01T11:37:09.567Z,48.90
2018-06-01T11:39:37.067Z,43.80
2018-06-01T11:42:05.324Z,52.40
2018-06-01T11:44:32.776Z,48.70
2018-06-01T11:47:00.666Z,48.90
2018-06-01T11:49:28.981Z,41.47
2018-06-01T11:51:56.624Z,40.47
2018-06-01T11:54:24.299Z,42.40
2018-06-01T11:56:51.778Z,37.87
2018-06-01T11:59:19.242Z,46.40
2018-06-01T12:01:46.807Z,52.80
2018-06-01T12:04:14.273Z,44.10
2018-06-01T12:06:42.010Z,52.27
2018-06-01T12:09:09.544Z,46.10
2018-06-01T12:11:37.035Z,56.63
2018-06-01T12:14:04.528Z,50.67
2018-06-01T12:16:32.060Z,52.30
2018-06-01T12:18:59.678Z,60.57
2018-06-01T12:21:27.912Z,31.00
2018-06-01T12:23:55.439Z,57.97
2018-06-01T12:26:22.911Z,51.00
2018-06-01T12:28:50.424Z,64.87
2018-06-01T12:31:18.660Z,56.33
2018-06-01T12:33:46.141Z,54.77
2018-06-01T12:36:13.620Z,53.70
2018-06-01T12:38:41.901Z,59.90
2018-06-01T12:41:10.168Z,63.70
2018-06-01T12:43:37.649Z,51.13
2018-06-01T12:46:05.901Z,40.37
2018-06-01T12:48:33.377Z,53.37
2018-06-01T12:51:01.661Z,54.03
2018-06-01T12:53:29.911Z,47.80
2018-06-01T12:55:57.383Z,41.27
2018-06-01T12:58:25.625Z,46.77
2018-06-01T13:00:53.917Z,46.00
2018-06-01T13:03:21.422Z,44.80
2018-06-01T13:05:48.974Z,42.17
2018-06-01T13:08:16.450Z,38.93
2018-06-01T13:10:45.377Z,39.73
2018-06-01T13:13:13.657Z,33.53
2018-06-01T13:15:41.149Z,38.00
2018-06-01T13:18:09.370Z,34.90
2018-06-01T13:20:36.914Z,36.10
2018-06-01T13:23:05.133Z,38.93
2018-06-01T13:25:32.708Z,36.67
2018-06-01T13:28:00.176Z,39.60
2018-06-01T13:30:27.675Z,30.43
2018-06-01T13:32:55.189Z,37.57
2018-06-01T13:35:23.499Z,35.40
2018-06-01T13:37:51.758Z,36.30
2018-06-01T13:40:21.073Z,31.87
2018-06-01T13:42:48.708Z,37.47
2018-06-01T13:45:16.958Z,35.10
2018-06-01T13:47:44.461Z,29.40
2018-06-01T13:50:12.737Z,29.93
2018-06-01T13:52:40.995Z,33.60
2018-06-01T13:55:09.228Z,35.07
2018-06-01T13:57:36.699Z,33.57
2018-06-01T14:00:04.188Z,34.30
2018-06-01T14:02:32.476Z,33.43
2018-06-01T14:05:00.740Z,31.77
2018-06-01T14:07:28.197Z,33.30
2018-06-01T14:09:56.518Z,32.83
2018-06-01T14:12:24.003Z,32.70
2018-06-01T14:14:51.500Z,32.50
2018-06-01T14:17:18.989Z,32.40
2018-06-01T14:19:46.761Z,31.17
2018-06-01T14:22:14.308Z,33.50
2018-06-01T14:24:41.890Z,30.53
2018-06-01T14:27:09.393Z,25.30
2018-06-01T14:29:36.905Z,29.40
2018-06-01T14:32:04.371Z,26.27
2018-06-01T14:34:31.885Z,26.90
2018-06-01T14:37:00.140Z,25.23
2018-06-01T14:39:27.886Z,25.57
2018-06-01T14:41:56.178Z,23.50
2018-06-01T14:44:23.809Z,24.67
2018-06-01T14:46:51.454Z,21.93
2018-06-01T14:49:18.856Z,23.00
2018-06-01T14:51:46.379Z,21.57
2018-06-01T14:54:14.680Z,22.70
2018-06-01T14:56:42.271Z,17.00
2018-06-01T14:59:09.824Z,18.90
2018-06-01T15:01:38.232Z,17.67
2018-06-01T15:04:05.759Z,15.57
2018-06-01T15:06:33.455Z,16.73
2018-06-01T15:09:05.136Z,18.30
2018-06-01T15:11:32.645Z,17.80
2018-06-01T15:14:00.135Z,14.47
2018-06-01T15:16:27.634Z,17.40
2018-06-01T15:18:55.212Z,12.13
2018-06-01T15:21:22.673Z,18.83
2018-06-01T15:23:50.160Z,16.20
2018-06-01T15:26:18.393Z,16.97
2018-06-01T15:28:46.655Z,22.10
2018-06-01T15:31:14.114Z,16.63
2018-06-01T15:33:41.576Z,18.10
2018-06-01T15:36:09.056Z,19.03
2018-06-01T15:38:36.537Z,20.13
2018-06-01T15:41:04.951Z,20.30
2018-06-01T15:43:32.270Z,18.90
2018-06-01T15:46:00.508Z,16.47
2018-06-01T15:48:28.004Z,12.83
2018-06-01T15:50:55.481Z,17.27
2018-06-01T15:53:22.956Z,16.10
2018-06-01T15:55:50.476Z,14.40
2018-06-01T15:58:17.937Z,17.30
2018-06-01T16:00:45.409Z,15.57
2018-06-01T16:03:13.876Z,15.45
2018-06-01T16:05:41.373Z,14.60
2018-06-01T16:08:08.851Z,16.33
2018-06-01T16:10:36.336Z,17.07
2018-06-01T16:13:03.809Z,12.93
2018-06-01T16:15:31.305Z,16.90
2018-06-01T16:17:58.804Z,14.90
2018-06-01T16:20:26.269Z,12.93
2018-06-01T16:22:54.500Z,18.97
2018-06-01T16:25:21.994Z,20.97
2018-06-01T16:27:49.496Z,18.67
2018-06-01T16:30:17.780Z,21.63
2018-06-01T16:32:46.025Z,18.97
2018-06-01T16:35:13.512Z,21.57
2018-06-01T16:37:41.772Z,22.80
2018-06-01T16:40:09.233Z,20.57
2018-06-01T16:42:36.694Z,22.60
2018-06-01T16:45:04.180Z,23.07
2018-06-01T16:47:31.645Z,25.37
2018-06-01T16:49:59.137Z,21.90
2018-06-01T16:52:26.613Z,23.30
2018-06-01T16:54:54.092Z,24.07
2018-06-01T16:57:22.346Z,24.23
2018-06-01T16:59:49.812Z,22.23
2018-06-01T17:02:17.302Z,17.83
2018-06-01T17:04:45.555Z,21.87
2018-06-01T17:07:13.017Z,20.70
2018-06-01T17:09:40.480Z,20.37
2018-06-01T17:12:07.953Z,23.43
2018-06-01T17:14:35.440Z,22.00
2018-06-01T17:17:02.904Z,21.00
2018-06-01T17:19:30.380Z,18.17
2018-06-01T17:21:57.868Z,21.77
2018-06-01T17:24:26.116Z,23.20
2018-06-01T17:26:53.596Z,22.20
2018-06-01T17:29:21.099Z,19.67
2018-06-01T17:31:48.594Z,20.60
2018-06-01T17:34:16.088Z,16.07
2018-06-01T17:36:44.312Z,19.63
2018-06-01T17:39:11.797Z,22.40
2018-06-01T17:41:39.260Z,23.47
2018-06-01T17:44:06.748Z,19.83
2018-06-01T17:46:34.266Z,21.93
2018-06-01T17:49:01.766Z,23.53
2018-06-01T17:51:29.993Z,25.80
2018-06-01T17:53:57.492Z,25.60
2018-06-01T17:56:25.724Z,24.60
2018-06-01T17:58:53.208Z,26.80
2018-06-01T18:01:20.673Z,27.43
2018-06-01T18:03:48.164Z,27.30
2018-06-01T18:06:15.633Z,23.67
2018-06-01T18:08:43.121Z,29.30
2018-06-01T18:11:10.588Z,29.50
2018-06-01T18:13:38.076Z,27.47
2018-06-01T18:16:05.552Z,33.57
2018-06-01T18:18:33.013Z,34.83
2018-06-01T18:21:00.582Z,34.17
2018-06-01T18:23:28.041Z,42.40
2018-06-01T18:25:55.517Z,30.63
2018-06-01T18:28:23.000Z,40.70
2018-06-01T18:30:50.488Z,43.33
2018-06-01T18:33:18.748Z,29.97
2018-06-01T18:35:46.214Z,38.60
2018-06-01T18:38:13.696Z,43.90
2018-06-01T18:40:41.193Z,39.07
2018-06-01T18:43:08.676Z,45.70
2018-06-01T18:45:36.144Z,45.23
2018-06-01T18:48:03.637Z,48.60
2018-06-01T18:50:31.096Z,45.23
2018-06-01T18:52:58.568Z,45.80
2018-06-01T18:55:26.049Z,42.97
2018-06-01T18:57:53.541Z,34.20
2018-06-01T19:00:21.004Z,35.17
2018-06-01T19:02:48.491Z,22.27
2018-06-01T19:05:15.976Z,32.73
2018-06-01T19:07:43.473Z,31.87
2018-06-01T19:10:10.933Z,23.80
2018-06-01T19:12:38.417Z,32.93
2018-06-01T19:15:06.652Z,29.33
2018-06-01T19:17:34.171Z,33.30
2018-06-01T19:20:02.413Z,32.27
2018-06-01T19:22:30.683Z,35.03
2018-06-01T19:24:58.141Z,31.60
2018-06-01T19:27:26.467Z,37.67
2018-06-01T19:29:53.937Z,32.10
2018-06-01T19:32:21.424Z,39.00
2018-06-01T19:34:48.887Z,37.47
2018-06-01T19:37:16.380Z,36.63
2018-06-01T19:39:43.839Z,37.00
2018-06-01T19:42:11.292Z,34.93
2018-06-01T19:44:38.781Z,35.73
2018-06-01T19:47:06.245Z,35.97
2018-06-01T19:49:33.787Z,38.07
2018-06-01T19:52:01.252Z,35.20
2018-06-01T19:54:29.598Z,34.77
2018-06-01T19:56:57.165Z,35.03
2018-06-01T19:59:25.418Z,37.20
2018-06-01T20:01:52.909Z,30.10
2018-06-01T20:04:20.374Z,28.20
2018-06-01T20:06:47.842Z,32.10
2018-06-01T20:09:15.331Z,33.70
2018-06-01T20:11:42.882Z,29.90
2018-06-01T20:14:11.191Z,30.57
2018-06-01T20:16:38.612Z,34.10
2018-06-01T20:19:06.161Z,36.47
2018-06-01T20:21:33.637Z,37.17
2018-06-01T20:24:01.129Z,31.00
2018-06-01T20:26:28.597Z,31.30
2018-06-01T20:28:56.093Z,34.90
2018-06-01T20:31:23.556Z,23.47
2018-06-01T20:33:51.064Z,38.53
2018-06-01T20:36:18.528Z,41.27
2018-06-01T20:38:46.760Z,38.77
2018-06-01T20:41:14.268Z,42.00
2018-06-01T20:43:42.508Z,41.80
2018-06-01T20:46:09.964Z,40.97
2018-06-01T20:48:37.443Z,34.70
2018-06-01T20:51:04.945Z,42.30
2018-06-01T20:53:32.415Z,43.50
2018-06-01T20:55:59.956Z,40.63
2018-06-01T20:58:27.430Z,39.70
2018-06-01T21:00:54.916Z,43.77
2018-06-01T21:03:22.386Z,41.27
2018-06-01T21:05:49.868Z,38.77
2018-06-01T21:08:18.125Z,46.43
2018-06-01T21:10:45.632Z,41.53
2018-06-01T21:13:13.132Z,41.53
2018-06-01T21:15:40.588Z,44.90
2018-06-01T21:18:08.070Z,42.80
2018-06-01T21:20:35.560Z,44.50
2018-06-01T21:23:03.029Z,45.97
2018-06-01T21:25:30.500Z,48.40
2018-06-01T21:27:57.997Z,44.03
2018-06-01T21:30:25.460Z,46.97
2018-06-01T21:32:52.950Z,48.90
2018-06-01T21:35:20.417Z,51.33
2018-06-01T21:37:47.908Z,56.00
2018-06-01T21:40:15.397Z,53.33
2018-06-01T21:42:42.864Z,52.83
2018-06-01T21:45:10.353Z,48.67
2018-06-01T21:47:37.835Z,52.47
2018-06-01T21:50:05.329Z,49.60
2018-06-01T21:52:32.816Z,57.57
2018-06-01T21:55:00.299Z,54.77
2018-06-01T21:57:27.768Z,52.80
2018-06-01T21:59:55.269Z,60.00
2018-06-01T22:02:22.741Z,56.00
2018-06-01T22:04:51.000Z,59.23
2018-06-01T22:07:18.484Z,64.23
2018-06-01T22:09:46.071Z,55.77
2018-06-01T22:12:13.543Z,57.57
2018-06-01T22:14:41.017Z,53.50
2018-06-01T22:17:08.503Z,59.20
2018-06-01T22:19:35.964Z,56.60
2018-06-01T22:22:03.475Z,54.20
2018-06-01T22:24:30.943Z,49.53
2018-06-01T22:26:58.411Z,38.97
2018-06-01T22:29:25.899Z,50.40
2018-06-01T22:31:54.152Z,40.20
2018-06-01T22:34:21.648Z,47.97
2018-06-01T22:36:49.885Z,46.63
2018-06-01T22:39:18.240Z,44.37
2018-06-01T22:41:45.733Z,33.70
2018-06-01T22:44:13.225Z,36.83
2018-06-01T22:46:40.689Z,44.30
2018-06-01T22:49:08.157Z,44.87
2018-06-01T22:51:35.636Z,35.67
2018-06-01T22:54:03.152Z,31.77
2018-06-01T22:56:31.389Z,35.57
2018-06-01T22:58:59.616Z,26.00
2018-06-01T23:01:27.092Z,30.13
2018-06-01T23:06:28.336Z,29.97
2018-06-01T23:08:55.924Z,28.43
2018-06-01T23:11:23.385Z,34.97
2018-06-01T23:13:50.884Z,34.70
2018-06-01T23:16:18.340Z,28.23
2018-06-01T23:18:45.826Z,33.70
2018-06-01T23:21:13.321Z,31.30
2018-06-01T23:23:40.783Z,31.73
2018-06-01T23:26:08.276Z,35.10
2018-06-01T23:28:35.741Z,32.30
2018-06-01T23:31:04.064Z,36.40
2018-06-01T23:33:31.594Z,34.07
2018-06-01T23:35:59.081Z,34.37
2018-06-01T23:38:26.577Z,32.03
2018-06-01T23:40:54.040Z,31.57
2018-06-01T23:43:21.533Z,32.13
2018-06-01T23:45:49.765Z,26.00
2018-06-01T23:48:17.264Z,34.00
2018-06-01T23:50:45.539Z,36.20
2018-06-01T23:53:13.780Z,29.90
2018-06-01T23:55:41.260Z,34.70
2018-06-01T23:58:08.748Z,33.00
